createdAt,value
2018-03-18T00:00:29.670Z,13.07
2018-03-18T00:12:42.349Z,12.88
2018-03-18T00:15:09.289Z,13.27
2018-03-18T00:17:35.579Z,14.40
2018-03-18T00:20:03.224Z,13.43
2018-03-18T00:22:30.513Z,13.98
2018-03-18T00:24:57.738Z,13.62
2018-03-18T00:27:23.962Z,13.23
2018-03-18T00:29:51.828Z,15.18
2018-03-18T00:32:20.276Z,13.50
2018-03-18T00:34:47.923Z,15.05
2018-03-18T00:37:14.249Z,14.40
2018-03-18T00:39:41.839Z,14.70
2018-03-18T00:42:08.147Z,15.60
2018-03-18T00:44:35.178Z,14.82
2018-03-18T00:47:02.407Z,14.82
2018-03-18T00:49:29.018Z,14.07
2018-03-18T00:52:00.139Z,15.75
2018-03-18T00:54:26.355Z,14.00
2018-03-18T00:56:54.211Z,14.30
2018-03-18T00:59:21.254Z,15.60
2018-03-18T01:01:48.628Z,14.15
2018-03-18T01:04:16.235Z,14.18
2018-03-18T01:06:42.462Z,15.23
2018-03-18T01:09:10.878Z,15.02
2018-03-18T01:11:38.784Z,14.68
2018-03-18T01:14:05.509Z,14.27
2018-03-18T01:16:32.024Z,16.00
2018-03-18T01:18:59.852Z,14.43
2018-03-18T01:31:11.411Z,12.73
2018-03-18T01:33:38.622Z,14.40
2018-03-18T01:36:06.992Z,12.73
2018-03-18T01:38:34.125Z,12.90
2018-03-18T01:41:01.094Z,13.57
2018-03-18T01:43:27.490Z,13.23
2018-03-18T01:45:55.744Z,13.07
2018-03-18T01:48:21.991Z,13.55
2018-03-18T01:50:49.039Z,13.35
2018-03-18T01:53:21.349Z,15.80
2018-03-18T01:55:48.419Z,14.57
2018-03-18T01:58:14.666Z,13.20
2018-03-18T02:00:42.952Z,14.80
2018-03-18T02:03:09.730Z,13.93
2018-03-18T02:05:37.297Z,15.05
2018-03-18T02:08:04.342Z,13.60
2018-03-18T02:10:32.193Z,15.68
2018-03-18T02:12:59.127Z,12.73
2018-03-18T02:15:25.412Z,13.48
2018-03-18T02:17:52.535Z,14.40
2018-03-18T02:20:19.603Z,13.68
2018-03-18T02:22:47.328Z,15.23
2018-03-18T02:25:13.533Z,15.10
2018-03-18T02:27:39.727Z,13.80
2018-03-18T02:30:06.924Z,14.05
2018-03-18T02:32:33.278Z,15.45
2018-03-18T02:35:01.237Z,13.90
2018-03-18T02:37:28.970Z,14.68
2018-03-18T02:39:55.160Z,13.38
2018-03-18T02:42:22.179Z,13.50
2018-03-18T02:44:50.067Z,13.65
2018-03-18T02:47:17.064Z,13.18
2018-03-18T02:49:44.302Z,13.27
2018-03-18T02:52:11.266Z,13.82
2018-03-18T02:54:38.344Z,14.10
2018-03-18T02:57:05.325Z,13.23
2018-03-18T02:59:32.513Z,13.45
2018-03-18T03:02:31.779Z,15.85
2018-03-18T03:04:58.792Z,14.23
2018-03-18T03:07:26.764Z,15.10
2018-03-18T03:09:53.724Z,12.95
2018-03-18T03:12:21.582Z,12.63
2018-03-18T03:14:48.667Z,13.20
2018-03-18T03:17:14.860Z,14.45
2018-03-18T03:19:43.503Z,13.60
2018-03-18T03:22:09.727Z,13.55
2018-03-18T03:24:36.733Z,12.63
2018-03-18T03:27:04.515Z,12.80
2018-03-18T03:29:33.281Z,13.27
2018-03-18T03:32:01.196Z,12.93
2018-03-18T03:34:28.112Z,12.50
2018-03-18T03:36:54.718Z,12.30
2018-03-18T03:39:23.055Z,12.88
2018-03-18T03:41:50.294Z,12.13
2018-03-18T03:44:16.640Z,11.77
2018-03-18T03:46:43.094Z,12.65
2018-03-18T03:49:10.423Z,12.48
2018-03-18T03:51:36.653Z,12.65
2018-03-18T03:54:03.360Z,11.63
2018-03-18T03:56:30.593Z,13.00
2018-03-18T03:58:58.312Z,11.77
2018-03-18T04:01:26.161Z,12.30
2018-03-18T04:03:52.327Z,12.73
2018-03-18T04:06:18.588Z,12.35
2018-03-18T04:08:45.654Z,11.57
2018-03-18T04:11:12.245Z,11.20
2018-03-18T04:13:38.507Z,11.85
2018-03-18T04:16:06.272Z,12.10
2018-03-18T04:18:33.261Z,10.20
2018-03-18T04:21:00.384Z,14.27
2018-03-18T04:23:27.872Z,12.57
2018-03-18T04:25:54.064Z,12.25
2018-03-18T04:28:21.020Z,11.65
2018-03-18T04:30:47.538Z,11.98
2018-03-18T04:33:15.264Z,11.20
2018-03-18T04:35:43.338Z,12.35
2018-03-18T04:38:11.327Z,12.15
2018-03-18T04:40:40.672Z,12.48
2018-03-18T04:43:06.882Z,11.93
2018-03-18T04:45:34.449Z,11.55
2018-03-18T04:48:01.495Z,10.90
2018-03-18T04:50:29.986Z,11.98
2018-03-18T04:52:57.848Z,11.60
2018-03-18T04:55:24.771Z,11.52
2018-03-18T04:57:52.007Z,10.85
2018-03-18T05:00:19.290Z,10.65
2018-03-18T05:02:47.475Z,11.43
2018-03-18T05:05:14.677Z,10.70
2018-03-18T05:07:41.795Z,12.40
2018-03-18T05:10:08.158Z,10.50
2018-03-18T05:12:35.668Z,12.23
2018-03-18T05:15:03.418Z,11.12
2018-03-18T05:17:31.223Z,11.45
2018-03-18T05:19:57.502Z,11.85
2018-03-18T05:22:23.707Z,10.82
2018-03-18T05:24:49.989Z,11.07
2018-03-18T05:27:16.836Z,12.13
2018-03-18T05:29:43.080Z,10.90
2018-03-18T05:32:09.342Z,11.30
2018-03-18T05:34:36.080Z,11.32
2018-03-18T05:37:03.095Z,11.65
2018-03-18T05:39:31.663Z,11.85
2018-03-18T05:41:59.116Z,10.80
2018-03-18T05:44:25.385Z,10.23
2018-03-18T05:46:51.883Z,10.10
2018-03-18T05:49:19.717Z,10.18
2018-03-18T05:51:48.571Z,10.73
2018-03-18T05:54:14.795Z,11.15
2018-03-18T05:56:42.833Z,10.98
2018-03-18T05:59:09.770Z,10.63
2018-03-18T06:01:38.592Z,10.85
2018-03-18T06:04:05.646Z,10.18
2018-03-18T06:06:32.241Z,11.45
2018-03-18T06:08:59.890Z,11.23
2018-03-18T06:11:26.704Z,11.85
2018-03-18T06:13:53.809Z,10.65
2018-03-18T06:16:22.735Z,10.30
2018-03-18T06:18:49.525Z,10.57
2018-03-18T06:21:16.763Z,10.35
2018-03-18T06:23:43.122Z,10.55
2018-03-18T06:26:11.907Z,8.80
2018-03-18T06:28:38.282Z,11.45
2018-03-18T06:31:05.286Z,9.38
2018-03-18T06:33:32.356Z,10.07
2018-03-18T06:36:01.446Z,10.30
2018-03-18T06:38:28.739Z,10.75
2018-03-18T06:40:54.984Z,11.40
2018-03-18T06:43:23.100Z,10.20
2018-03-18T06:45:50.960Z,10.48
2018-03-18T06:48:17.809Z,10.65
2018-03-18T06:50:46.506Z,10.13
2018-03-18T06:53:13.774Z,9.93
2018-03-18T06:55:39.943Z,11.10
2018-03-18T06:58:06.165Z,9.50
2018-03-18T07:00:33.616Z,9.90
2018-03-18T07:03:02.166Z,9.73
2018-03-18T07:05:30.354Z,9.98
2018-03-18T07:07:57.628Z,10.00
2018-03-18T07:10:23.834Z,10.38
2018-03-18T07:12:51.768Z,10.27
2018-03-18T07:15:18.725Z,9.80
2018-03-18T07:17:46.594Z,10.30
2018-03-18T07:20:12.875Z,9.48
2018-03-18T07:22:39.214Z,9.40
2018-03-18T07:25:06.060Z,8.90
2018-03-18T07:27:32.680Z,8.98
2018-03-18T07:29:58.917Z,10.40
2018-03-18T07:32:25.131Z,9.57
2018-03-18T07:34:53.107Z,9.40
2018-03-18T07:37:21.235Z,8.90
2018-03-18T07:39:48.223Z,8.75
2018-03-18T07:42:14.545Z,8.82
2018-03-18T07:44:41.580Z,10.20
2018-03-18T07:47:08.564Z,9.32
2018-03-18T07:49:35.449Z,9.30
2018-03-18T07:52:03.314Z,9.77
2018-03-18T07:54:31.943Z,8.70
2018-03-18T07:56:59.199Z,9.65
2018-03-18T07:59:26.362Z,9.68
2018-03-18T08:01:54.516Z,9.55
2018-03-18T08:04:22.480Z,9.43
2018-03-18T08:06:48.789Z,9.10
2018-03-18T08:09:14.994Z,9.15
2018-03-18T08:21:27.553Z,8.10
2018-03-18T08:23:54.379Z,8.50
2018-03-18T08:26:22.290Z,8.93
2018-03-18T08:28:49.218Z,8.45
2018-03-18T08:31:15.546Z,8.98
2018-03-18T08:33:41.858Z,9.05
2018-03-18T08:36:08.043Z,8.27
2018-03-18T08:38:35.044Z,9.35
2018-03-18T08:41:01.870Z,9.63
2018-03-18T08:43:28.115Z,8.88
2018-03-18T08:45:56.490Z,9.18
2018-03-18T08:48:22.757Z,8.95
2018-03-18T08:50:50.248Z,8.15
2018-03-18T08:53:17.419Z,8.10
2018-03-18T08:55:43.730Z,8.65
2018-03-18T08:58:09.983Z,7.90
2018-03-18T09:00:39.055Z,8.27
2018-03-18T09:03:06.103Z,8.30
2018-03-18T09:05:34.187Z,8.60
2018-03-18T09:08:02.093Z,8.75
2018-03-18T09:10:29.716Z,8.93
2018-03-18T09:12:57.768Z,9.13
2018-03-18T09:15:27.996Z,8.63
2018-03-18T09:17:54.229Z,9.15
2018-03-18T09:20:20.471Z,9.07
2018-03-18T09:22:49.217Z,9.25
2018-03-18T09:25:18.492Z,9.15
2018-03-18T09:27:46.516Z,8.82
2018-03-18T09:30:15.183Z,10.48
2018-03-18T09:32:41.321Z,10.30
2018-03-18T09:35:09.420Z,8.68
2018-03-18T09:37:35.704Z,8.52
2018-03-18T09:40:03.661Z,9.30
2018-03-18T09:42:30.837Z,9.10
2018-03-18T09:44:58.562Z,9.57
2018-03-18T09:47:24.804Z,8.48
2018-03-18T09:49:51.048Z,8.68
2018-03-18T09:52:18.973Z,9.00
2018-03-18T09:54:47.021Z,9.15
2018-03-18T09:57:13.387Z,9.38
2018-03-18T09:59:39.901Z,9.73
2018-03-18T10:02:06.243Z,8.52
2018-03-18T10:04:33.610Z,8.93
2018-03-18T10:07:02.479Z,9.63
2018-03-18T10:09:29.734Z,8.85
2018-03-18T10:11:56.987Z,8.40
2018-03-18T10:14:23.223Z,9.02
2018-03-18T10:16:50.338Z,10.23
2018-03-18T10:19:16.651Z,9.23
2018-03-18T10:21:45.740Z,9.35
2018-03-18T10:24:11.963Z,9.02
2018-03-18T10:26:38.873Z,7.95
2018-03-18T10:29:06.116Z,8.75
2018-03-18T10:31:33.270Z,9.40
2018-03-18T10:34:00.383Z,9.82
2018-03-18T10:36:27.420Z,9.52
2018-03-18T10:38:54.424Z,9.10
2018-03-18T10:41:20.615Z,9.02
2018-03-18T10:43:49.607Z,8.30
2018-03-18T10:46:17.497Z,10.38
2018-03-18T10:48:43.787Z,10.18
2018-03-18T10:51:10.780Z,10.00
2018-03-18T10:53:37.372Z,9.38
2018-03-18T10:56:03.603Z,9.65
2018-03-18T10:58:30.145Z,10.30
2018-03-18T11:01:03.217Z,8.35
2018-03-18T11:03:29.489Z,9.50
2018-03-18T11:05:56.207Z,8.98
2018-03-18T11:08:23.236Z,9.77
2018-03-18T11:10:50.197Z,8.73
2018-03-18T11:13:17.162Z,9.18
2018-03-18T11:15:43.376Z,8.27
2018-03-18T11:18:10.371Z,9.63
2018-03-18T11:20:36.585Z,8.30
2018-03-18T11:23:02.874Z,10.13
2018-03-18T11:25:30.899Z,10.25
2018-03-18T11:27:57.098Z,8.65
2018-03-18T11:30:23.362Z,10.13
2018-03-18T11:32:50.503Z,9.50
2018-03-18T11:35:17.697Z,9.52
2018-03-18T11:37:43.974Z,10.52
2018-03-18T11:40:10.867Z,9.75
2018-03-18T11:42:37.100Z,8.65
2018-03-18T11:45:05.340Z,9.70
2018-03-18T11:47:31.936Z,10.13
2018-03-18T11:50:00.384Z,10.18
2018-03-18T11:52:26.642Z,9.73
2018-03-18T11:54:57.278Z,10.90
2018-03-18T11:57:24.327Z,9.50
2018-03-18T11:59:52.151Z,9.40
2018-03-18T12:02:19.366Z,9.27
2018-03-18T12:04:46.543Z,9.30
2018-03-18T12:07:14.710Z,9.85
2018-03-18T12:09:42.393Z,9.52
2018-03-18T12:12:09.542Z,9.30
2018-03-18T12:14:38.164Z,9.23
2018-03-18T12:17:06.142Z,9.10
2018-03-18T12:19:33.282Z,10.15
2018-03-18T12:21:59.516Z,11.25
2018-03-18T12:24:27.394Z,9.60
2018-03-18T12:26:53.695Z,9.82
2018-03-18T12:29:19.932Z,8.90
2018-03-18T12:31:48.213Z,9.40
2018-03-18T12:34:16.136Z,10.23
2018-03-18T12:36:44.758Z,9.55
2018-03-18T12:39:11.070Z,9.65
2018-03-18T12:41:37.323Z,9.15
2018-03-18T12:44:05.327Z,9.82
2018-03-18T12:46:33.395Z,9.30
2018-03-18T12:49:00.576Z,8.98
2018-03-18T12:51:26.840Z,9.30
2018-03-18T12:53:53.169Z,8.48
2018-03-18T12:56:19.397Z,8.90
2018-03-18T12:58:46.552Z,9.10
2018-03-18T13:01:13.681Z,8.43
2018-03-18T13:03:40.822Z,9.30
2018-03-18T13:06:09.218Z,8.93
2018-03-18T13:08:35.494Z,10.38
2018-03-18T13:11:02.297Z,8.35
2018-03-18T13:13:29.770Z,10.35
2018-03-18T13:15:57.632Z,9.90
2018-03-18T13:18:25.444Z,8.48
2018-03-18T13:20:52.504Z,8.45
2018-03-18T13:23:18.814Z,9.10
2018-03-18T13:25:45.675Z,9.38
2018-03-18T13:28:12.866Z,8.35
2018-03-18T13:30:39.077Z,8.82
2018-03-18T13:33:05.858Z,8.38
2018-03-18T13:35:35.322Z,9.45
2018-03-18T13:38:03.273Z,8.48
2018-03-18T13:40:31.163Z,9.48
2018-03-18T13:42:58.308Z,9.73
2018-03-18T13:45:26.156Z,10.23
2018-03-18T13:47:54.136Z,9.50
2018-03-18T13:50:20.674Z,10.23
2018-03-18T13:52:46.916Z,9.68
2018-03-18T13:55:13.217Z,9.00
2018-03-18T13:57:42.094Z,8.80
2018-03-18T14:00:08.356Z,10.35
2018-03-18T14:02:34.554Z,8.57
2018-03-18T14:05:01.743Z,8.40
2018-03-18T14:07:29.826Z,9.30
2018-03-18T14:09:56.846Z,8.77
2018-03-18T14:12:23.099Z,8.30
2018-03-18T14:14:50.267Z,7.90
2018-03-18T14:17:16.545Z,8.32
2018-03-18T14:19:42.805Z,8.40
2018-03-18T14:22:09.382Z,8.93
2018-03-18T14:24:36.556Z,8.35
2018-03-18T14:27:02.980Z,8.95
2018-03-18T14:29:30.016Z,7.18
2018-03-18T14:31:57.002Z,8.57
2018-03-18T14:34:24.276Z,8.55
2018-03-18T14:36:50.619Z,8.55
2018-03-18T14:39:17.531Z,8.50
2018-03-18T14:41:44.773Z,8.77
2018-03-18T14:44:11.543Z,8.40
2018-03-18T14:46:39.481Z,8.52
2018-03-18T14:49:05.696Z,8.02
2018-03-18T14:51:32.771Z,8.10
2018-03-18T14:53:59.899Z,8.05
2018-03-18T14:56:26.826Z,8.07
2018-03-18T14:58:54.173Z,8.32
2018-03-18T15:01:20.788Z,7.95
2018-03-18T15:03:47.093Z,6.95
2018-03-18T15:06:13.334Z,7.15
2018-03-18T15:08:39.636Z,7.80
2018-03-18T15:11:06.944Z,7.20
2018-03-18T15:13:33.228Z,7.20
2018-03-18T15:15:59.566Z,7.47
2018-03-18T15:18:26.677Z,8.20
2018-03-18T15:20:53.877Z,7.93
2018-03-18T15:23:20.105Z,7.55
2018-03-18T15:25:47.174Z,7.72
2018-03-18T15:28:13.395Z,7.15
2018-03-18T15:30:41.507Z,7.15
2018-03-18T15:33:08.853Z,7.30
2018-03-18T15:35:35.086Z,7.40
2018-03-18T15:38:01.738Z,8.05
2018-03-18T15:40:28.725Z,6.50
2018-03-18T15:42:55.918Z,7.55
2018-03-18T15:45:22.490Z,6.68
2018-03-18T15:47:50.053Z,7.30
2018-03-18T15:50:16.315Z,7.50
2018-03-18T15:52:42.526Z,6.32
2018-03-18T15:55:08.977Z,6.97
2018-03-18T15:57:35.232Z,7.82
2018-03-18T16:00:01.504Z,6.72
2018-03-18T16:02:27.821Z,6.70
2018-03-18T16:04:55.550Z,7.53
2018-03-18T16:07:22.707Z,7.35
2018-03-18T16:09:50.693Z,7.93
2018-03-18T16:12:17.005Z,7.18
2018-03-18T16:24:28.346Z,7.70
2018-03-18T16:26:54.617Z,6.95
2018-03-18T16:29:33.952Z,7.80
2018-03-18T16:32:00.935Z,6.95
2018-03-18T16:34:27.139Z,6.07
2018-03-18T16:36:54.686Z,6.85
2018-03-18T16:39:21.865Z,6.53
2018-03-18T16:41:50.110Z,6.37
2018-03-18T16:44:17.067Z,6.60
2018-03-18T16:46:44.967Z,7.03
2018-03-18T16:49:11.214Z,6.55
2018-03-18T16:51:38.317Z,7.05
2018-03-18T16:54:05.341Z,6.30
2018-03-18T16:56:31.645Z,6.28
2018-03-18T16:58:57.950Z,7.22
2018-03-18T17:01:24.169Z,6.20
2018-03-18T17:03:51.339Z,6.40
2018-03-18T17:06:17.588Z,6.72
2018-03-18T17:08:45.385Z,6.53
2018-03-18T17:11:12.635Z,6.47
2018-03-18T17:13:39.426Z,7.05
2018-03-18T17:16:07.869Z,6.35
2018-03-18T17:18:35.665Z,6.62
2018-03-18T17:21:02.913Z,6.10
2018-03-18T17:23:29.191Z,5.90
2018-03-18T17:25:55.405Z,6.35
2018-03-18T17:28:21.657Z,6.30
2018-03-18T17:30:49.133Z,7.45
2018-03-18T17:33:16.054Z,6.65
2018-03-18T17:35:42.300Z,6.53
2018-03-18T17:38:09.557Z,6.22
2018-03-18T17:40:35.822Z,6.35
2018-03-18T17:43:02.066Z,5.90
2018-03-18T17:45:40.800Z,6.10
2018-03-18T17:48:19.344Z,6.43
2018-03-18T17:50:57.854Z,6.10
2018-03-18T17:53:36.766Z,6.10
2018-03-18T17:56:15.295Z,7.47
2018-03-18T17:58:41.629Z,7.45
2018-03-18T18:01:08.796Z,5.85
2018-03-18T18:03:35.131Z,6.62
2018-03-18T18:06:04.121Z,7.78
2018-03-18T18:08:31.918Z,6.87
2018-03-18T18:10:58.158Z,7.18
2018-03-18T18:13:25.111Z,6.40
2018-03-18T18:15:52.920Z,6.62
2018-03-18T18:18:19.988Z,6.90
2018-03-18T18:20:47.546Z,6.37
2018-03-18T18:23:14.747Z,5.95
2018-03-18T18:25:42.314Z,5.20
2018-03-18T18:28:10.676Z,5.95
2018-03-18T18:30:37.016Z,6.22
2018-03-18T18:33:03.334Z,4.97
2018-03-18T18:35:31.002Z,6.00
2018-03-18T18:37:58.381Z,5.80
2018-03-18T18:40:24.796Z,6.03
2018-03-18T18:42:52.783Z,5.18
2018-03-18T18:45:19.057Z,5.90
2018-03-18T18:47:46.815Z,5.50
2018-03-18T18:50:15.848Z,6.00
2018-03-18T18:52:42.121Z,5.75
2018-03-18T18:55:08.411Z,5.57
2018-03-18T18:57:35.293Z,6.82
2018-03-18T19:00:02.582Z,7.45
2018-03-18T19:02:29.563Z,6.65
2018-03-18T19:04:55.823Z,7.28
2018-03-18T19:07:22.979Z,6.35
2018-03-18T19:09:50.006Z,6.22
2018-03-18T19:12:16.244Z,6.80
2018-03-18T19:14:43.323Z,6.70
2018-03-18T19:17:10.305Z,4.87
2018-03-18T19:19:36.541Z,5.70
2018-03-18T19:22:02.833Z,5.72
2018-03-18T19:24:31.673Z,5.80
2018-03-18T19:26:59.554Z,5.28
2018-03-18T19:29:26.033Z,5.80
2018-03-18T19:31:52.319Z,5.43
2018-03-18T19:34:20.598Z,6.60
2018-03-18T19:36:46.812Z,4.87
2018-03-18T19:39:14.106Z,6.22
2018-03-18T19:41:42.058Z,5.95
2018-03-18T19:44:08.287Z,5.80
2018-03-18T19:46:34.612Z,6.57
2018-03-18T19:49:01.677Z,6.85
2018-03-18T19:51:28.021Z,5.85
2018-03-18T19:53:54.991Z,6.43
2018-03-18T19:56:21.988Z,5.80
2018-03-18T19:58:48.212Z,6.53
2018-03-18T20:01:14.642Z,6.43
2018-03-18T20:03:40.874Z,7.65
2018-03-18T20:06:08.102Z,5.62
2018-03-18T20:08:36.061Z,5.75
2018-03-18T20:11:03.236Z,7.00
2018-03-18T20:13:29.484Z,5.40
2018-03-18T20:15:56.589Z,6.20
2018-03-18T20:18:23.384Z,5.65
2018-03-18T20:20:50.009Z,5.22
2018-03-18T20:23:16.293Z,5.22
2018-03-18T20:25:43.147Z,5.43
2018-03-18T20:28:09.450Z,5.87
2018-03-18T20:30:38.432Z,5.68
2018-03-18T20:33:05.514Z,5.93
2018-03-18T20:35:32.628Z,5.85
2018-03-18T20:38:00.708Z,5.47
2018-03-18T20:40:28.460Z,6.60
2018-03-18T20:42:56.297Z,5.53
2018-03-18T20:45:25.695Z,5.80
2018-03-18T20:47:52.838Z,6.80
2018-03-18T20:50:19.180Z,6.37
2018-03-18T20:52:46.442Z,6.68
2018-03-18T20:55:13.365Z,5.18
2018-03-18T20:57:39.608Z,5.82
2018-03-18T21:00:05.841Z,5.20
2018-03-18T21:02:32.087Z,5.40
2018-03-18T21:04:58.432Z,6.50
2018-03-18T21:07:25.387Z,5.97
2018-03-18T21:09:52.393Z,5.40
2018-03-18T21:12:18.606Z,5.78
2018-03-18T21:14:45.247Z,5.20
2018-03-18T21:17:12.258Z,6.05
2018-03-18T21:19:39.353Z,5.32
2018-03-18T21:22:07.211Z,5.40
2018-03-18T21:24:33.436Z,5.15
2018-03-18T21:26:59.799Z,6.47
2018-03-18T21:29:27.661Z,5.55
2018-03-18T21:31:55.358Z,6.82
2018-03-18T21:34:33.980Z,5.35
2018-03-18T21:37:00.318Z,5.95
2018-03-18T21:39:27.333Z,5.18
2018-03-18T21:41:53.521Z,6.00
2018-03-18T21:44:19.834Z,5.35
2018-03-18T21:46:47.846Z,5.45
2018-03-18T21:49:14.921Z,5.62
2018-03-18T21:51:42.015Z,6.37
2018-03-18T21:54:09.163Z,5.25
2018-03-18T21:56:36.678Z,6.35
2018-03-18T21:59:02.984Z,6.12
2018-03-18T22:01:29.843Z,6.18
2018-03-18T22:03:57.059Z,5.68
2018-03-18T22:06:23.368Z,6.82
2018-03-18T22:08:50.416Z,5.68
2018-03-18T22:11:17.750Z,5.47
2018-03-18T22:13:44.837Z,6.10
2018-03-18T22:16:11.083Z,5.55
2018-03-18T22:18:37.756Z,7.20
2018-03-18T22:21:04.806Z,5.70
2018-03-18T22:23:32.900Z,6.57
2018-03-18T22:25:59.759Z,5.40
2018-03-18T22:28:27.846Z,5.93
2018-03-18T22:30:54.093Z,6.35
2018-03-18T22:33:22.055Z,5.50
2018-03-18T22:35:49.909Z,6.32
2018-03-18T22:38:16.073Z,5.80
2018-03-18T22:40:42.269Z,6.20
2018-03-18T22:43:09.703Z,5.55
2018-03-18T22:45:36.638Z,5.78
2018-03-18T22:48:03.498Z,6.37
2018-03-18T22:50:32.265Z,6.30
2018-03-18T22:52:59.292Z,7.62
2018-03-18T22:55:26.490Z,6.97
2018-03-18T22:57:53.466Z,4.87
2018-03-18T23:00:20.432Z,6.45
2018-03-18T23:02:47.638Z,6.43
2018-03-18T23:05:15.197Z,6.22
2018-03-18T23:07:41.427Z,5.78
2018-03-18T23:10:11.145Z,5.32
2018-03-18T23:12:38.027Z,6.25
2018-03-18T23:15:04.238Z,6.15
2018-03-18T23:17:30.645Z,5.70
2018-03-18T23:19:58.396Z,5.53
2018-03-18T23:22:25.958Z,5.75
2018-03-18T23:24:52.916Z,6.65
2018-03-18T23:27:20.083Z,6.00
2018-03-18T23:29:46.256Z,5.97
2018-03-18T23:32:12.447Z,6.80
2018-03-18T23:34:40.532Z,6.80
2018-03-18T23:37:07.510Z,6.32
2018-03-18T23:39:33.704Z,6.40
2018-03-18T23:41:59.926Z,6.95
2018-03-18T23:44:26.119Z,7.00
2018-03-18T23:46:53.093Z,7.30
2018-03-18T23:49:20.043Z,6.43
2018-03-18T23:51:46.911Z,6.65
2018-03-18T23:54:13.838Z,6.35
2018-03-18T23:56:41.163Z,6.07
2018-03-18T23:59:08.233Z,6.80
